Danville Regional Airport
KDAN : now visible

Airfield :











YOU CAN JOIN US ON...

 
LOGIN :

Register | Disclaimer

   EN    FR    IT 

 









Legend :    VFR   Marginal VFR   IFR   Intensive IFR   Very Intensive IFR
Visi :
Ceiling :
>= 8 km
>= 3000ft
5 to 8 km
1000 to 3000 ft
1500m to 5 km
500 to 1000 ft
800 to 1500m
200 to 500 ft
< 800m
< 200 ft
Symbols :   Thunderstorms  Fog  Heavy snow  Heavy precipitations  Wind > 20 kt






- Airport Elevation : 571 ft
- IATA code : DAN


KDAN - Danville Regional

CURRENT METAR :
  • 190240Z AUTO 25005KT 4SM BR OVC002 06/06 A2980 RMK AO2 T00610061

EXPIRED METARs :
  • 190153Z AUTO 23005KT 1SM BR VV002 06/06 A2980 RMK AO2 SLP087 T00610056
  • 190111Z AUTO 23007KT 1/2SM FG VV002 06/06 A2979 RMK AO2 T00610056
  • 190053Z AUTO 24006KT 5SM BR OVC003 06/06 A2979 RMK AO2 SLP085 T00610056
  • 182353Z AUTO 00000KT 7SM OVC003 06/06 A2977 RMK AO2 CIG 002V006 SLP078 60014 T00610061 10072 20061 53003

TAF KDAN
Valid from the 19 at 01:00 until the 20 at 00:00 UTC


190112Z 1901/1924 23006KT 4SM BR OVC003
TEMPO 1901/1905 1SM BR OVC005
FM190500 00000KT 1/2SM FG OVC004
FM191400 26005KT 4SM BR BKN020
FM191600 27004KT P6SM BKN050



MET'MAP, your aeronautical weather chart ! - Copyright ORBIFLY December 2007 - Disclaimer

ORBIFLY MET'MAP TEAM :

Programming & Development : Alexandra Zaïnal
Concept & Development : Baudouin d'Aumeries
Co-Development & Prog : Marc-Olivier Méhu
Technical & hardware support : Manuel Goepfert

Contact : metmap@orbifly.com




SOURCES & CREDITS :

   NOAA       Earth
Advisory